Time;durP1;ratioP1;P1;durP2;ratioP2;P2;SDS_P1;SDS_P2;PMS_P1;PMS_P2;Temp;Humidity;BMP_temperature;BMP_pressure;BME280_temperature;BME280_humidity;BME280_pressure;Samples;Min_cycle;Max_cycle;Signal;HPM_P1;HPM_P2
2022/05/17 00:01:54;;;;;;;23.33;15.43;;;17.00;99.90;;;;;;5108193;28;20085;-85
2022/05/17 00:04:23;;;;;;;21.30;14.40;;;17.00;99.90;;;;;;5121002;27;20056;-85
2022/05/17 00:06:49;;;;;;;21.10;13.32;;;16.90;99.90;;;;;;5099193;28;20050;-85
2022/05/17 00:09:16;;;;;;;19.83;13.57;;;16.90;99.90;;;;;;5108638;27;20114;-85
2022/05/17 00:12:04;;;;;;;18.77;12.07;;;16.90;99.90;;;;;;5136468;27;20068;-84
2022/05/17 00:14:31;;;;;;;16.50;11.52;;;16.90;99.90;;;;;;5118273;27;20403;-85
2022/05/17 00:17:27;;;;;;;14.45;9.77;;;16.90;99.90;;;;;;5094985;28;20030;-85
2022/05/17 00:19:53;;;;;;;14.32;8.73;;;16.80;99.90;;;;;;5108056;27;20426;-85
2022/05/17 00:22:27;;;;;;;12.95;10.18;;;16.80;99.90;;;;;;5095597;28;20055;-83
2022/05/17 00:24:53;;;;;;;13.00;9.75;;;16.70;99.90;;;;;;5092539;28;20058;-85
2022/05/17 00:27:25;;;;;;;21.98;10.25;;;16.80;99.90;;;;;;5113901;28;20056;-86
2022/05/17 00:29:50;;;;;;;11.85;8.70;;;16.70;99.90;;;;;;5115170;28;20027;-85
2022/05/17 00:32:16;;;;;;;14.35;8.15;;;16.70;99.90;;;;;;5097216;28;20417;-85
2022/05/17 00:34:46;;;;;;;12.13;8.38;;;16.70;99.90;;;;;;5098976;27;20032;-85
2022/05/17 00:37:12;;;;;;;12.27;7.28;;;16.70;99.90;;;;;;5098588;28;20430;-84
2022/05/17 00:40:04;;;;;;;12.93;7.07;;;16.60;99.90;;;;;;5093661;28;20149;-86
2022/05/17 00:42:30;;;;;;;12.70;8.60;;;16.60;99.90;;;;;;5114103;28;20027;-85
2022/05/17 00:44:55;;;;;;;9.35;7.30;;;16.60;99.90;;;;;;5103458;28;20093;-85
2022/05/17 00:47:24;;;;;;;13.10;7.78;;;16.60;99.90;;;;;;5076876;28;20024;-85
2022/05/17 00:50:26;;;;;;;12.45;6.57;;;16.60;99.90;;;;;;5095827;27;20357;-85
2022/05/17 00:53:01;;;;;;;13.20;6.63;;;16.50;99.90;;;;;;5088767;28;20028;-85
2022/05/17 00:55:38;;;;;;;13.32;6.55;;;16.50;99.90;;;;;;5093306;28;20035;-85
2022/05/17 00:58:09;;;;;;;15.55;7.78;;;16.50;99.90;;;;;;5114221;28;20031;-85
2022/05/17 01:00:39;;;;;;;13.23;7.80;;;16.40;99.90;;;;;;5096582;28;20409;-83
2022/05/17 01:03:08;;;;;;;12.45;7.40;;;16.40;99.90;;;;;;5094512;28;20549;-85
2022/05/17 01:05:44;;;;;;;18.42;9.48;;;16.30;99.90;;;;;;5082675;28;20039;-85
2022/05/17 01:08:11;;;;;;;;;;;16.30;99.90;;;;;;5057118;28;20024;-84
2022/05/17 01:10:43;;;;;;;13.90;8.70;;;16.20;99.90;;;;;;5056256;28;19911;-85
2022/05/17 01:15:53;;;;;;;17.15;7.78;;;16.20;99.90;;;;;;5079789;28;20074;-84
2022/05/17 01:18:23;;;;;;;16.00;8.88;;;16.10;99.90;;;;;;5083032;28;20020;-85
2022/05/17 01:20:48;;;;;;;25.65;9.95;;;16.10;99.90;;;;;;5063918;28;20521;-86
2022/05/17 01:23:36;;;;;;;19.63;10.23;;;16.10;99.90;;;;;;5068059;28;20020;-85
2022/05/17 01:26:03;;;;;;;18.90;9.27;;;16.10;99.90;;;;;;5079399;28;20027;-85
2022/05/17 01:28:32;;;;;;;20.30;10.73;;;16.10;99.90;;;;;;5074703;28;20412;-85
2022/05/17 01:31:04;;;;;;;21.27;10.65;;;16.10;99.90;;;;;;5055815;28;20032;-85
2022/05/17 01:33:32;;;;;;;15.13;9.02;;;16.10;99.90;;;;;;5105909;28;20028;-85
2022/05/17 01:36:01;;;;;;;18.77;10.70;;;16.00;99.90;;;;;;5089355;28;20035;-85
2022/05/17 01:38:28;;;;;;;18.65;11.65;;;16.10;99.90;;;;;;5099688;28;20056;-85
2022/05/17 01:40:53;;;;;;;19.42;13.23;;;16.10;99.90;;;;;;5074995;28;20099;-84
2022/05/17 01:43:19;;;;;;;22.92;13.02;;;16.10;99.90;;;;;;5077940;28;20119;-85
2022/05/17 01:45:45;;;;;;;27.50;13.88;;;16.00;99.90;;;;;;5096822;28;20020;-85
2022/05/17 01:48:18;;;;;;;34.65;18.35;;;16.00;99.90;;;;;;5092141;28;20022;-85
2022/05/17 01:50:43;;;;;;;30.92;18.13;;;16.00;99.90;;;;;;5109251;28;20019;-85
2022/05/17 01:53:24;;;;;;;30.45;16.75;;;16.00;99.90;;;;;;5056423;28;20570;-85
2022/05/17 01:55:50;;;;;;;25.35;18.45;;;16.00;99.90;;;;;;5073209;28;20393;-84
2022/05/17 01:58:18;;;;;;;30.88;17.20;;;16.00;99.90;;;;;;5072968;28;20029;-84
2022/05/17 02:01:13;;;;;;;28.30;16.15;;;16.00;99.90;;;;;;5079478;28;20074;-85
2022/05/17 02:03:39;;;;;;;32.58;18.98;;;16.00;99.90;;;;;;5080702;28;20024;-85
2022/05/17 02:06:06;;;;;;;36.05;19.52;;;16.00;99.90;;;;;;5100243;28;20085;-85
2022/05/17 02:08:33;;;;;;;39.60;20.63;;;16.00;99.90;;;;;;5105005;27;20084;-84
2022/05/17 02:11:02;;;;;;;29.98;18.75;;;16.00;99.90;;;;;;5120536;27;20428;-85
2022/05/17 02:13:28;;;;;;;33.58;20.90;;;16.00;99.90;;;;;;5112483;28;20035;-85
2022/05/17 02:16:16;;;;;;;24.52;15.32;;;15.90;99.90;;;;;;5112559;28;20028;-85
2022/05/17 02:18:41;;;;;;;28.85;19.25;;;15.90;99.90;;;;;;5092992;28;20023;-85
2022/05/17 02:21:08;;;;;;;29.80;18.33;;;15.90;99.90;;;;;;5093490;28;20016;-85
2022/05/17 02:23:41;;;;;;;34.05;18.77;;;15.90;99.90;;;;;;5100183;28;20051;-85
2022/05/17 02:26:07;;;;;;;35.65;19.83;;;15.90;99.90;;;;;;5106279;28;20046;-85
2022/05/17 02:28:33;;;;;;;36.95;20.83;;;15.90;99.90;;;;;;5113142;28;20032;-85
2022/05/17 02:31:04;;;;;;;28.38;18.73;;;15.90;99.90;;;;;;5111913;28;20030;-86
2022/05/17 02:33:30;;;;;;;31.15;18.92;;;15.90;99.90;;;;;;5110060;28;20103;-85
2022/05/17 02:35:56;;;;;;;29.65;20.25;;;16.00;99.90;;;;;;5091233;28;20126;-85
2022/05/17 02:38:22;;;;;;;35.80;19.40;;;15.90;99.90;;;;;;5101599;28;20027;-85
2022/05/17 02:40:47;;;;;;;33.88;19.15;;;15.90;99.90;;;;;;5092701;28;20031;-85
2022/05/17 02:43:16;;;;;;;39.22;19.70;;;15.90;99.90;;;;;;5080066;28;20118;-85
2022/05/17 02:52:26;;;;;;;28.38;17.10;;;15.90;99.90;;;;;;5111868;28;20027;-86
2022/05/17 02:54:53;;;;;;;35.63;19.52;;;15.90;99.90;;;;;;5112256;28;20028;-85
2022/05/17 02:57:18;;;;;;;34.88;18.23;;;15.90;99.90;;;;;;5114112;28;20085;-85
2022/05/17 02:59:44;;;;;;;27.45;15.35;;;15.90;99.90;;;;;;5097561;28;20016;-86
2022/05/17 03:02:10;;;;;;;29.52;18.50;;;15.90;99.90;;;;;;5112254;28;20048;-86
2022/05/17 03:04:42;;;;;;;33.45;18.17;;;15.90;99.90;;;;;;5116576;28;20066;-85
2022/05/17 03:07:08;;;;;;;34.30;19.90;;;15.90;99.90;;;;;;5110799;28;20487;-84
2022/05/17 03:09:52;;;;;;;30.38;19.27;;;15.90;99.90;;;;;;5116796;28;20054;-85
2022/05/17 03:12:18;;;;;;;37.58;18.52;;;16.00;99.90;;;;;;5094605;28;20019;-85
2022/05/17 03:14:43;;;;;;;31.40;18.70;;;15.90;99.90;;;;;;5116991;28;20498;-85
2022/05/17 03:17:13;;;;;;;36.10;20.65;;;15.90;99.90;;;;;;5098109;28;20028;-85
2022/05/17 03:19:40;;;;;;;36.63;18.27;;;15.90;99.90;;;;;;5097735;28;20012;-85
2022/05/17 03:22:16;;;;;;;41.97;19.80;;;15.90;99.90;;;;;;5115993;28;20062;-84
2022/05/17 03:24:41;;;;;;;37.40;18.27;;;15.80;99.90;;;;;;5095438;28;20078;-84
2022/05/17 03:27:07;;;;;;;28.00;15.68;;;15.80;99.90;;;;;;5095758;28;20422;-85
2022/05/17 03:29:52;;;;;;;32.92;17.63;;;15.80;99.90;;;;;;5103075;27;20031;-85
2022/05/17 03:32:18;;;;;;;33.78;17.85;;;15.80;99.90;;;;;;5123405;27;20038;-85
2022/05/17 03:35:00;;;;;;;31.73;18.63;;;15.80;99.90;;;;;;5119785;27;20016;-84
2022/05/17 03:37:26;;;;;;;38.55;18.30;;;15.80;99.90;;;;;;5113131;27;20035;-84
2022/05/17 03:40:04;;;;;;;38.63;18.27;;;15.80;99.90;;;;;;5109855;27;20045;-84
2022/05/17 03:42:30;;;;;;;38.78;18.77;;;15.80;99.90;;;;;;5088670;28;20024;-84
2022/05/17 03:45:03;;;;;;;35.00;17.13;;;15.80;99.90;;;;;;5123580;27;20383;-84
2022/05/17 03:47:29;;;;;;;33.45;18.67;;;15.80;99.90;;;;;;5109631;28;20073;-84
2022/05/17 03:50:05;;;;;;;30.35;17.92;;;15.80;99.90;;;;;;5117908;27;20475;-84
2022/05/17 03:52:31;;;;;;;40.58;18.02;;;15.80;99.90;;;;;;5136898;27;20063;-84
2022/05/17 03:55:00;;;;;;;36.28;18.63;;;15.70;99.90;;;;;;5130074;27;20509;-84
2022/05/17 03:57:27;;;;;;;34.83;17.48;;;15.70;99.90;;;;;;5113032;28;20033;-84
2022/05/17 04:00:09;;;;;;;34.28;16.67;;;15.70;99.90;;;;;;5106081;28;20023;-83
2022/05/17 04:02:42;;;;;;;30.27;16.98;;;15.70;99.90;;;;;;5115719;28;20043;-84
2022/05/17 04:05:09;;;;;;;35.28;17.23;;;15.70;99.90;;;;;;5107722;28;20559;-84
2022/05/17 04:07:36;;;;;;;32.38;18.40;;;15.70;99.90;;;;;;5095370;28;20072;-84
2022/05/17 04:10:08;;;;;;;42.28;19.60;;;15.70;99.90;;;;;;5115857;28;20055;-84
2022/05/17 04:12:35;;;;;;;39.65;18.52;;;15.60;99.90;;;;;;5094220;28;20089;-84
2022/05/17 04:15:02;;;;;;;32.20;16.10;;;15.70;99.90;;;;;;5114073;27;20045;-83
2022/05/17 04:17:27;;;;;;;29.42;16.65;;;15.70;99.90;;;;;;5096847;28;20038;-84
2022/05/17 04:19:53;;;;;;;47.20;18.85;;;15.70;99.90;;;;;;5115268;28;20024;-83
2022/05/17 04:22:20;;;;;;;40.85;18.50;;;15.70;99.90;;;;;;5093018;28;20023;-83
2022/05/17 04:24:45;;;;;;;39.38;16.80;;;15.70;99.90;;;;;;5110640;28;20024;-83
2022/05/17 04:27:13;;;;;;;31.13;16.67;;;15.70;99.90;;;;;;5114401;28;20043;-84
2022/05/17 04:29:39;;;;;;;39.78;18.45;;;15.70;99.90;;;;;;5093080;28;20396;-84
2022/05/17 04:32:16;;;;;;;33.65;17.95;;;15.70;99.90;;;;;;5095258;28;20024;-84
2022/05/17 04:34:41;;;;;;;28.95;14.65;;;15.70;99.90;;;;;;5089930;28;20024;-83
2022/05/17 04:37:11;;;;;;;33.85;16.83;;;15.70;99.90;;;;;;5094619;28;20031;-84
2022/05/17 04:39:37;;;;;;;27.52;13.63;;;15.80;99.90;;;;;;5109842;28;20016;-84
2022/05/17 04:42:03;;;;;;;28.23;15.60;;;15.80;99.90;;;;;;5093171;28;20362;-84
2022/05/17 04:44:29;;;;;;;36.45;17.65;;;15.80;99.90;;;;;;5114461;28;20049;-84
2022/05/17 04:46:57;;;;;;;27.23;15.35;;;15.80;99.90;;;;;;5088480;28;20032;-84
2022/05/17 04:49:23;;;;;;;22.60;13.80;;;15.80;99.90;;;;;;5090061;28;20480;-84
2022/05/17 04:52:16;;;;;;;20.30;12.23;;;15.80;99.90;;;;;;5094820;28;20020;-85
2022/05/17 04:54:42;;;;;;;36.15;17.10;;;15.80;99.90;;;;;;5102356;28;20509;-84
2022/05/17 04:57:08;;;;;;;29.67;14.20;;;15.80;99.90;;;;;;5102519;28;20900;-84
2022/05/17 04:59:33;;;;;;;18.95;11.35;;;15.80;99.90;;;;;;5094067;28;20103;-84
2022/05/17 05:01:59;;;;;;;22.50;12.38;;;15.80;99.90;;;;;;5106128;28;20040;-84
2022/05/17 05:04:26;;;;;;;32.05;14.15;;;15.80;99.90;;;;;;5093847;28;20078;-84
2022/05/17 05:06:51;;;;;;;31.73;15.85;;;15.80;99.90;;;;;;5094270;28;20086;-84
2022/05/17 05:09:37;;;;;;;28.35;15.52;;;15.90;99.90;;;;;;5085643;28;20418;-84
2022/05/17 05:12:03;;;;;;;29.13;14.32;;;15.90;99.90;;;;;;5093766;28;20103;-84
2022/05/17 05:14:35;;;;;;;31.40;16.90;;;15.90;99.90;;;;;;5094009;28;20111;-84
2022/05/17 05:17:01;;;;;;;35.00;15.93;;;15.90;99.90;;;;;;5091787;28;20499;-84
2022/05/17 05:19:30;;;;;;;32.63;16.40;;;15.90;99.90;;;;;;5075234;28;20020;-84
2022/05/17 05:21:56;;;;;;;27.08;13.20;;;16.00;99.90;;;;;;5075630;28;20086;-84
2022/05/17 05:24:37;;;;;;;44.50;16.60;;;16.00;99.90;;;;;;5093210;28;20024;-84
2022/05/17 05:27:03;;;;;;;39.28;14.68;;;16.00;99.90;;;;;;5075426;28;20024;-84
2022/05/17 05:29:34;;;;;;;38.97;15.73;;;16.00;99.90;;;;;;5075883;28;20500;-84
2022/05/17 05:31:59;;;;;;;33.13;15.48;;;16.00;99.90;;;;;;5093657;28;20020;-84
2022/05/17 05:34:32;;;;;;;27.52;14.60;;;16.00;99.90;;;;;;5075485;28;20031;-84
2022/05/17 05:36:58;;;;;;;25.23;11.80;;;16.00;99.90;;;;;;5093005;28;20103;-84
2022/05/17 05:39:40;;;;;;;27.77;14.70;;;15.90;99.90;;;;;;5060130;28;20560;-84
2022/05/17 05:42:05;;;;;;;33.00;15.85;;;15.90;99.90;;;;;;5092455;28;20024;-84
2022/05/17 05:44:35;;;;;;;29.20;13.65;;;16.00;99.90;;;;;;5082684;28;20354;-84
2022/05/17 05:47:00;;;;;;;36.88;15.02;;;16.00;99.90;;;;;;5090209;28;20419;-84
2022/05/17 05:49:27;;;;;;;34.03;14.25;;;16.00;99.90;;;;;;5093615;28;20024;-84
2022/05/17 05:51:53;;;;;;;31.58;13.13;;;16.00;99.90;;;;;;5093127;28;20028;-84
2022/05/17 05:54:20;;;;;;;26.83;13.23;;;16.00;99.90;;;;;;5092070;28;20827;-84
2022/05/17 05:56:45;;;;;;;43.28;14.68;;;16.10;99.90;;;;;;5069393;28;20035;-84
2022/05/17 05:59:19;;;;;;;30.38;12.85;;;16.10;99.90;;;;;;5057509;28;20020;-84
2022/05/17 06:01:48;;;;;;;33.42;13.50;;;16.10;99.90;;;;;;5070090;28;20543;-84
2022/05/17 06:04:13;;;;;;;19.23;9.93;;;16.20;99.90;;;;;;5112382;28;20495;-84
2022/05/17 06:06:40;;;;;;;26.05;11.27;;;16.30;99.90;;;;;;5101787;28;20096;-84
2022/05/17 06:09:05;;;;;;;28.20;14.45;;;16.20;99.90;;;;;;5112294;28;20023;-84
2022/05/17 06:11:31;;;;;;;30.67;13.63;;;16.20;99.90;;;;;;5107172;28;20103;-84
2022/05/17 06:14:03;;;;;;;28.90;12.93;;;16.30;99.90;;;;;;5112278;28;20468;-84
2022/05/17 06:16:29;;;;;;;46.35;14.38;;;16.30;99.90;;;;;;5112216;28;20409;-84
2022/05/17 06:18:57;;;;;;;33.38;13.27;;;16.30;99.90;;;;;;5112283;28;20024;-84
2022/05/17 06:21:23;;;;;;;29.83;12.90;;;16.30;99.90;;;;;;5112637;28;20032;-84
2022/05/17 06:23:49;;;;;;;40.10;14.25;;;16.30;99.90;;;;;;5111287;28;20031;-84
2022/05/17 06:26:15;;;;;;;34.97;16.23;;;16.30;99.90;;;;;;5112458;28;20028;-83
2022/05/17 06:28:55;;;;;;;38.63;15.82;;;16.30;99.90;;;;;;5104066;28;20494;-83
2022/05/17 06:31:20;;;;;;;32.20;14.95;;;16.30;99.90;;;;;;5111482;28;20489;-84
2022/05/17 06:33:48;;;;;;;46.30;17.90;;;16.30;99.90;;;;;;5113168;28;20123;-83
2022/05/17 06:36:14;;;;;;;42.58;17.90;;;16.30;99.90;;;;;;5113333;28;20444;-84
2022/05/17 06:38:53;;;;;;;35.20;16.80;;;16.30;99.90;;;;;;5113376;28;20023;-83
2022/05/17 06:41:19;;;;;;;37.80;17.40;;;16.30;99.90;;;;;;5112919;28;20016;-83
2022/05/17 06:43:52;;;;;;;45.13;17.58;;;16.40;99.90;;;;;;5113124;28;20099;-84
2022/05/17 06:46:17;;;;;;;32.78;14.77;;;16.40;99.90;;;;;;5113102;28;20023;-84
2022/05/17 06:48:46;;;;;;;45.70;18.13;;;16.30;99.90;;;;;;5113177;28;20019;-83
2022/05/17 06:51:12;;;;;;;47.47;18.83;;;16.30;99.90;;;;;;5111584;28;20035;-84
2022/05/17 06:53:46;;;;;;;44.40;19.50;;;16.40;99.90;;;;;;5112922;28;20036;-84
2022/05/17 06:56:12;;;;;;;48.08;21.00;;;16.40;99.90;;;;;;5112890;28;20023;-83
2022/05/17 06:58:49;;;;;;;46.38;21.67;;;16.50;99.90;;;;;;5112701;28;20100;-83
2022/05/17 07:01:26;;;;;;;46.03;20.98;;;16.50;99.90;;;;;;5112908;28;20444;-84
2022/05/17 07:03:53;;;;;;;48.47;20.92;;;16.50;99.90;;;;;;5112781;28;20498;-84
2022/05/17 07:06:20;;;;;;;42.40;20.83;;;16.40;99.90;;;;;;5112900;28;20020;-83
2022/05/17 07:08:46;;;;;;;58.38;24.70;;;16.50;99.90;;;;;;5112924;28;20471;-84
2022/05/17 07:13:56;;;;;;;52.88;25.35;;;16.60;99.90;;;;;;5112774;28;20059;-83
2022/05/17 07:16:24;;;;;;;44.97;22.48;;;16.70;99.90;;;;;;5112785;28;20036;-84
2022/05/17 07:18:50;;;;;;;49.22;22.92;;;16.60;99.90;;;;;;5112703;28;20028;-83
2022/05/17 07:21:16;;;;;;;32.22;17.60;;;16.70;99.90;;;;;;5112940;28;20026;-84
2022/05/17 07:23:42;;;;;;;47.90;21.10;;;16.70;99.90;;;;;;5112728;28;20016;-83
2022/05/17 07:26:10;;;;;;;54.28;21.38;;;16.70;99.90;;;;;;5112814;28;20102;-84
2022/05/17 07:29:05;;;;;;;37.63;18.08;;;16.80;99.90;;;;;;5094401;28;20050;-84
2022/05/17 07:31:30;;;;;;;40.65;15.77;;;16.80;99.90;;;;;;5087024;28;20038;-84
2022/05/17 07:34:08;;;;;;;38.60;17.67;;;16.80;99.90;;;;;;5112626;28;20027;-83
2022/05/17 07:36:33;;;;;;;47.15;19.60;;;16.90;99.90;;;;;;5101152;28;20349;-83
2022/05/17 07:39:03;;;;;;;37.20;18.58;;;17.10;99.90;;;;;;5095834;28;20049;-83
2022/05/17 07:41:28;;;;;;;46.20;19.58;;;17.10;99.90;;;;;;5111407;28;20074;-84
2022/05/17 07:44:05;;;;;;;40.15;19.70;;;17.10;99.90;;;;;;5096739;28;20714;-83
2022/05/17 07:46:31;;;;;;;40.40;17.88;;;17.10;99.90;;;;;;5093915;28;20093;-84
2022/05/17 07:48:58;;;;;;;34.88;17.15;;;17.20;99.90;;;;;;5093423;28;20028;-84
2022/05/17 07:51:23;;;;;;;38.85;15.25;;;17.20;99.90;;;;;;5096072;28;20034;-83
2022/05/17 07:53:51;;;;;;;44.17;20.25;;;17.20;99.90;;;;;;5102687;28;20416;-83
2022/05/17 07:56:17;;;;;;;46.15;20.48;;;17.30;99.90;;;;;;5097450;28;20028;-83
2022/05/17 07:58:43;;;;;;;39.40;18.83;;;17.40;99.90;;;;;;5116316;28;20039;-83
2022/05/17 08:01:09;;;;;;;46.35;19.60;;;17.40;99.90;;;;;;5115498;28;20106;-83
2022/05/17 08:04:02;;;;;;;48.40;19.63;;;17.50;99.90;;;;;;5108597;28;20531;-84
2022/05/17 08:06:27;;;;;;;45.78;21.05;;;17.60;99.90;;;;;;5108534;28;20062;-83
2022/05/17 08:08:54;;;;;;;38.33;19.80;;;17.60;99.90;;;;;;5114840;28;20059;-83
2022/05/17 08:11:20;;;;;;;40.70;20.38;;;17.60;99.90;;;;;;5107070;28;20023;-83
2022/05/17 08:13:48;;;;;;;32.22;16.42;;;17.70;99.90;;;;;;5097546;28;20061;-84
2022/05/17 08:16:13;;;;;;;46.20;18.67;;;17.70;99.90;;;;;;5101257;28;20027;-83
2022/05/17 08:18:43;;;;;;;30.40;15.27;;;17.80;99.90;;;;;;5095334;28;20020;-84
2022/05/17 08:21:09;;;;;;;45.72;19.67;;;17.80;99.90;;;;;;5095062;28;20052;-83
2022/05/17 08:23:43;;;;;;;38.97;18.13;;;17.80;99.90;;;;;;5095175;28;20059;-84
2022/05/17 08:28:57;;;;;;;32.95;16.02;;;17.90;99.90;;;;;;5095267;28;20388;-83
2022/05/17 08:31:23;;;;;;;31.55;14.02;;;18.00;99.90;;;;;;5112170;28;20050;-84
2022/05/17 08:33:50;;;;;;;35.17;17.67;;;18.00;99.90;;;;;;5097168;28;20033;-85
2022/05/17 08:36:15;;;;;;;31.23;17.42;;;18.10;99.90;;;;;;5114285;28;20038;-83
2022/05/17 08:38:47;;;;;;;44.47;19.23;;;18.20;99.90;;;;;;5115899;28;20024;-83
2022/05/17 08:41:24;;;;;;;38.53;17.58;;;18.30;99.90;;;;;;5095143;28;20476;-83
2022/05/17 08:43:56;;;;;;;36.13;16.30;;;18.30;99.90;;;;;;5112194;28;20028;-84
2022/05/17 08:47:00;;;;;;;31.10;14.05;;;18.30;99.90;;;;;;5096870;28;20049;-84
2022/05/17 08:49:31;;;;;;;33.13;13.68;;;18.40;99.90;;;;;;5097026;28;20023;-84
2022/05/17 08:52:08;;;;;;;32.58;15.02;;;18.40;99.90;;;;;;5115262;28;20031;-84
2022/05/17 08:54:41;;;;;;;27.48;11.27;;;18.50;99.90;;;;;;5113359;28;20396;-83
2022/05/17 08:57:22;;;;;;;23.50;12.80;;;18.60;99.90;;;;;;5114640;28;20027;-84
2022/05/17 08:59:48;;;;;;;34.60;14.95;;;18.50;99.90;;;;;;5107321;28;20028;-84
2022/05/17 09:02:39;;;;;;;28.48;10.85;;;18.60;99.90;;;;;;5091023;28;20043;-84
2022/05/17 09:05:23;;;;;;;25.77;11.50;;;18.60;99.90;;;;;;5114600;28;20024;-84
2022/05/17 09:08:09;;;;;;;38.10;15.30;;;18.70;99.90;;;;;;5114594;28;20032;-84
2022/05/17 09:10:36;;;;;;;25.48;10.82;;;18.80;99.90;;;;;;5113659;28;20039;-84
2022/05/17 09:13:23;;;;;;;24.88;11.35;;;18.90;99.90;;;;;;5095794;28;20085;-84
2022/05/17 09:15:50;;;;;;;22.20;10.20;;;19.00;99.90;;;;;;5110383;28;20387;-84
2022/05/17 09:18:18;;;;;;;28.63;11.30;;;19.10;99.90;;;;;;5114882;28;20026;-84
2022/05/17 09:20:44;;;;;;;24.80;10.75;;;19.10;99.90;;;;;;5114154;28;20016;-83
2022/05/17 09:23:11;;;;;;;29.60;12.15;;;19.30;99.90;;;;;;5094603;28;20020;-84
2022/05/17 09:26:00;;;;;;;29.60;10.68;;;19.30;99.90;;;;;;5095225;28;20019;-84
2022/05/17 09:28:46;;;;;;;23.23;8.15;;;19.40;99.90;;;;;;5113447;28;20038;-84
2022/05/17 09:31:13;;;;;;;;;;;19.50;99.90;;;;;;5093853;28;20035;-84
2022/05/17 09:33:48;;;;;;;22.13;8.90;;;19.50;99.90;;;;;;5095763;28;19958;-83
2022/05/17 09:36:21;;;;;;;;;;;19.50;99.90;;;;;;5104246;28;20087;-84
2022/05/17 09:38:49;;;;;;;23.75;7.30;;;19.60;99.90;;;;;;5113242;28;20040;-84
2022/05/17 09:41:21;;;;;;;23.77;8.18;;;19.50;99.90;;;;;;5110847;28;20027;-85
2022/05/17 09:44:05;;;;;;;19.58;6.55;;;19.40;99.90;;;;;;5102717;28;20065;-84
2022/05/17 09:46:49;;;;;;;13.88;5.72;;;19.30;99.90;;;;;;5112453;28;20011;-84
2022/05/17 09:52:52;;;;;;;13.77;5.30;;;19.50;99.90;;;;;;5103446;28;20031;-84
2022/05/17 09:55:28;;;;;;;11.32;5.50;;;19.60;99.90;;;;;;5107306;28;20103;-84
2022/05/17 09:57:56;;;;;;;;;;;19.70;99.90;;;;;;5095645;28;20034;-83
2022/05/17 10:00:24;;;;;;;7.38;3.67;;;19.70;99.90;;;;;;5111771;28;19911;-84
2022/05/17 10:03:00;;;;;;;16.88;5.55;;;19.80;99.90;;;;;;5113920;27;20471;-84
2022/05/17 10:05:38;;;;;;;11.95;4.55;;;19.90;99.90;;;;;;5133635;27;20026;-84
2022/05/17 10:08:12;;;;;;;17.73;4.72;;;20.00;99.90;;;;;;5134190;27;20511;-84
2022/05/17 10:10:47;;;;;;;23.40;4.43;;;20.10;99.90;;;;;;5134610;27;20459;-83
2022/05/17 10:13:28;;;;;;;12.82;3.70;;;20.30;99.90;;;;;;5134163;27;20432;-83
2022/05/17 10:16:18;;;;;;;12.23;3.65;;;20.40;99.90;;;;;;5134054;27;20031;-84
2022/05/17 10:18:52;;;;;;;9.52;3.60;;;20.40;99.90;;;;;;5115788;27;20366;-84
2022/05/17 10:21:46;;;;;;;12.77;3.88;;;20.40;99.90;;;;;;5133866;27;20032;-84
2022/05/17 10:24:43;;;;;;;6.88;2.65;;;20.40;99.90;;;;;;5115440;27;20023;-84
2022/05/17 10:27:31;;;;;;;10.15;3.40;;;20.40;99.90;;;;;;5119335;27;20602;-84
2022/05/17 10:30:15;;;;;;;11.65;3.30;;;20.30;99.90;;;;;;5111138;28;20020;-84
2022/05/17 10:33:00;;;;;;;7.18;2.60;;;20.30;99.90;;;;;;5105194;28;20391;-84
2022/05/17 10:35:40;;;;;;;14.27;3.80;;;20.30;99.90;;;;;;5083595;28;20031;-84
2022/05/17 10:38:12;;;;;;;6.60;2.85;;;20.30;99.90;;;;;;5111988;28;20300;-84
2022/05/17 10:40:48;;;;;;;9.35;3.25;;;20.20;99.90;;;;;;5112314;28;20023;-84
2022/05/17 10:43:19;;;;;;;13.13;3.15;;;20.30;99.90;;;;;;5077392;28;20359;-84
2022/05/17 10:45:55;;;;;;;18.95;3.42;;;20.40;99.90;;;;;;5096652;28;20028;-84
2022/05/17 10:48:50;;;;;;;13.23;3.45;;;20.60;99.90;;;;;;5096487;28;20554;-84
2022/05/17 10:51:27;;;;;;;7.38;2.60;;;20.90;99.90;;;;;;5101603;28;20077;-88
2022/05/17 10:53:58;;;;;;;5.22;2.95;;;21.00;99.90;;;;;;5109890;28;20134;-84
2022/05/17 10:56:47;;;;;;;10.73;3.15;;;21.00;99.90;;;;;;5106944;28;20520;-86
2022/05/17 10:59:50;;;;;;;12.68;3.65;;;21.10;99.90;;;;;;5093973;28;20181;-85
2022/05/17 11:02:42;;;;;;;12.98;3.15;;;21.20;99.90;;;;;;5104694;28;20542;-85
2022/05/17 11:05:31;;;;;;;6.07;2.70;;;21.30;99.90;;;;;;5124460;28;20019;-85
2022/05/17 11:08:05;;;;;;;13.32;3.40;;;21.30;99.90;;;;;;5133519;28;20030;-85
2022/05/17 11:10:59;;;;;;;8.13;2.97;;;21.30;99.90;;;;;;5114955;28;20027;-85
2022/05/17 11:13:31;;;;;;;6.63;2.67;;;21.20;99.90;;;;;;5131363;28;20030;-85
2022/05/17 11:16:08;;;;;;;10.52;3.42;;;21.20;99.90;;;;;;5115137;28;20433;-85
2022/05/17 11:18:41;;;;;;;8.05;2.58;;;21.20;99.90;;;;;;5136618;27;20038;-85
2022/05/17 11:21:33;;;;;;;8.60;2.42;;;21.20;99.90;;;;;;5110194;28;20024;-86
2022/05/17 11:24:37;;;;;;;11.90;3.47;;;21.30;99.90;;;;;;5087116;28;20023;-85
2022/05/17 11:27:03;;;;;;;9.20;2.88;;;21.30;99.90;;;;;;5104453;28;20031;-83
2022/05/17 11:30:08;;;;;;;9.15;3.10;;;21.30;99.90;;;;;;5095261;28;20047;-84
2022/05/17 11:32:36;;;;;;;6.47;2.60;;;21.30;99.90;;;;;;5097199;28;20035;-85
2022/05/17 11:35:24;;;;;;;8.27;2.63;;;21.40;99.90;;;;;;5111507;28;20035;-83
2022/05/17 11:37:50;;;;;;;6.20;2.55;;;21.30;99.90;;;;;;5107665;28;20058;-84
2022/05/17 11:40:38;;;;;;;5.65;3.13;;;21.40;99.90;;;;;;5095148;28;20032;-84
2022/05/17 11:45:53;;;;;;;6.00;2.80;;;21.70;99.90;;;;;;5113346;28;20487;-84
2022/05/17 11:48:22;;;;;;;6.78;3.17;;;21.80;99.90;;;;;;5112832;28;20085;-84
2022/05/17 11:51:01;;;;;;;9.38;2.80;;;21.70;99.90;;;;;;5095050;28;20368;-83
2022/05/17 11:53:27;;;;;;;14.20;2.80;;;21.60;99.90;;;;;;5116382;28;20051;-84
2022/05/17 11:56:15;;;;;;;6.53;2.42;;;21.50;99.90;;;;;;5116100;28;20417;-83
2022/05/17 11:58:42;;;;;;;9.82;2.30;;;21.50;99.90;;;;;;5104539;28;20038;-84
2022/05/17 12:01:26;;;;;;;5.38;2.78;;;21.40;99.90;;;;;;5110269;28;20027;-84
2022/05/17 12:03:54;;;;;;;15.93;2.83;;;21.30;99.90;;;;;;5107553;28;20507;-84
2022/05/17 12:06:53;;;;;;;10.40;2.35;;;21.30;99.90;;;;;;5109258;28;20107;-84
2022/05/17 12:09:34;;;;;;;13.35;2.60;;;21.30;99.90;;;;;;5114228;28;20020;-83
2022/05/17 12:12:27;;;;;;;6.97;1.98;;;21.30;99.90;;;;;;5105029;28;20031;-83
2022/05/17 12:15:29;;;;;;;6.28;2.10;;;21.20;99.90;;;;;;5087990;28;20030;-83
2022/05/17 12:18:21;;;;;;;3.42;1.67;;;21.10;99.90;;;;;;5097773;28;20413;-83
2022/05/17 12:21:02;;;;;;;11.00;2.10;;;21.00;99.90;;;;;;5095153;28;20023;-83
2022/05/17 12:23:45;;;;;;;11.57;2.30;;;21.00;99.90;;;;;;5103480;28;20028;-83
2022/05/17 12:26:21;;;;;;;7.00;2.22;;;21.00;99.90;;;;;;5111554;28;20016;-83
2022/05/17 12:28:52;;;;;;;4.65;1.92;;;21.00;99.90;;;;;;5114604;28;20102;-83
2022/05/17 12:31:27;;;;;;;7.38;2.22;;;21.10;99.90;;;;;;5111484;28;20024;-83
2022/05/17 12:33:53;;;;;;;5.05;1.90;;;21.30;99.90;;;;;;5114296;28;20027;-83
2022/05/17 12:36:27;;;;;;;6.35;2.45;;;21.50;99.90;;;;;;5093534;28;20039;-83
2022/05/17 12:44:48;;;;;;;4.60;1.88;;;22.10;99.90;;;;;;5115599;28;20395;-83
2022/05/17 12:47:32;;;;;;;9.40;2.03;;;22.20;99.90;;;;;;5111491;28;20088;-83
2022/05/17 12:49:58;;;;;;;8.80;2.03;;;22.30;99.90;;;;;;5112847;28;20027;-84
2022/05/17 12:52:36;;;;;;;10.35;2.10;;;22.40;99.90;;;;;;5093182;28;20024;-83
2022/05/17 12:55:12;;;;;;;6.85;2.33;;;22.40;99.90;;;;;;5094259;28;20051;-84
2022/05/17 12:57:39;;;;;;;9.85;2.15;;;22.50;99.90;;;;;;5086425;28;20028;-87
2022/05/17 13:00:29;;;;;;;5.00;1.67;;;22.60;99.90;;;;;;5076592;28;20116;-83
2022/05/17 13:02:59;;;;;;;10.05;1.95;;;22.70;99.90;;;;;;5109788;28;20054;-83
2022/05/17 13:05:27;;;;;;;11.52;3.00;;;22.70;99.90;;;;;;5109963;28;20019;-83
2022/05/17 13:08:14;;;;;;;3.53;1.60;;;22.60;99.90;;;;;;5115141;28;20038;-86
2022/05/17 13:10:43;;;;;;;4.97;1.92;;;22.60;99.90;;;;;;5093977;28;20028;-84
2022/05/17 13:13:20;;;;;;;7.82;1.90;;;22.60;99.90;;;;;;5098197;28;20058;-85
2022/05/17 13:15:49;;;;;;;6.93;1.67;;;22.60;99.90;;;;;;5114663;28;20055;-84
2022/05/17 13:18:17;;;;;;;6.30;1.75;;;22.70;99.90;;;;;;5113289;28;20043;-83
2022/05/17 13:20:48;;;;;;;6.90;2.10;;;22.90;99.90;;;;;;5109163;28;20467;-83
2022/05/17 13:23:16;;;;;;;4.35;1.60;;;23.00;99.90;;;;;;5114295;28;20027;-83
2022/05/17 13:25:45;;;;;;;6.45;1.77;;;23.10;99.90;;;;;;5110352;28;20019;-83
2022/05/17 13:28:11;;;;;;;10.32;2.05;;;23.10;99.90;;;;;;5081971;28;20055;-85